createdAt,value
2018-12-15T00:01:15.496Z,1.05
2018-12-15T00:03:43.178Z,1.04
2018-12-15T00:06:10.849Z,1.04
2018-12-15T00:08:38.468Z,1.03
2018-12-15T00:11:06.175Z,1.04
2018-12-15T00:13:33.835Z,1.05
2018-12-15T00:16:01.424Z,1.05
2018-12-15T00:18:29.068Z,1.04
2018-12-15T00:20:56.895Z,1.04
2018-12-15T00:23:24.687Z,1.05
2018-12-15T00:25:52.356Z,1.04
2018-12-15T00:28:20.016Z,1.04
2018-12-15T00:30:47.685Z,1.04
2018-12-15T00:33:15.335Z,0.99
2018-12-15T00:35:43.012Z,1.04
2018-12-15T00:38:10.663Z,1.03
2018-12-15T00:40:38.336Z,1.04
2018-12-15T00:43:05.927Z,1.04
2018-12-15T00:45:33.550Z,1.03
2018-12-15T00:48:01.220Z,1.02
2018-12-15T00:50:28.875Z,1.03
2018-12-15T00:52:56.463Z,1.03
2018-12-15T00:55:24.076Z,1.03
2018-12-15T00:57:51.772Z,1.03
2018-12-15T01:00:19.435Z,1.02
2018-12-15T01:02:47.087Z,1.03
2018-12-15T01:05:14.704Z,1.03
2018-12-15T01:07:42.296Z,1.03
2018-12-15T01:10:09.978Z,1.04
2018-12-15T01:12:37.644Z,1.04
2018-12-15T01:15:05.310Z,1.03
2018-12-15T01:17:32.959Z,1.04
2018-12-15T01:20:00.636Z,1.04
2018-12-15T01:22:28.291Z,1.04
2018-12-15T01:24:55.955Z,1.03
2018-12-15T01:27:23.615Z,1.06
2018-12-15T01:29:51.383Z,1.07
2018-12-15T01:32:19.256Z,1.07
2018-12-15T01:34:46.924Z,1.09
2018-12-15T01:37:14.572Z,1.06
2018-12-15T01:39:42.239Z,1.12
2018-12-15T01:42:09.903Z,1.13
2018-12-15T01:44:37.563Z,1.14
2018-12-15T01:47:05.227Z,1.13
2018-12-15T01:49:32.807Z,1.14
2018-12-15T01:52:00.462Z,1.12
2018-12-15T01:54:28.091Z,1.11
2018-12-15T01:56:55.695Z,1.10
2018-12-15T01:59:23.343Z,1.08
2018-12-15T02:01:51.000Z,1.08
2018-12-15T02:04:18.668Z,1.09
2018-12-15T02:06:46.271Z,1.06
2018-12-15T02:09:13.888Z,1.05
2018-12-15T02:11:41.556Z,1.04
2018-12-15T02:14:09.222Z,1.02
2018-12-15T02:16:36.875Z,1.01
2018-12-15T02:19:04.513Z,1.01
2018-12-15T02:21:32.193Z,1.03
2018-12-15T02:23:59.829Z,1.01
2018-12-15T02:26:27.532Z,1.02
2018-12-15T02:28:55.121Z,1.04
2018-12-15T02:31:24.101Z,1.03
2018-12-15T02:33:51.856Z,1.04
2018-12-15T02:36:19.502Z,1.05
2018-12-15T02:38:47.175Z,1.04
2018-12-15T02:41:15.083Z,1.05
2018-12-15T02:43:42.802Z,1.04
2018-12-15T02:46:10.468Z,1.03
2018-12-15T02:48:38.143Z,1.04
2018-12-15T02:51:05.804Z,1.04
2018-12-15T02:53:33.464Z,1.04
2018-12-15T02:56:01.138Z,1.05
2018-12-15T02:58:28.788Z,1.05
2018-12-15T03:00:56.451Z,1.04
2018-12-15T03:03:24.117Z,1.05
2018-12-15T03:05:52.166Z,1.04
2018-12-15T03:08:19.843Z,1.05
2018-12-15T03:10:47.437Z,1.04
2018-12-15T03:13:15.070Z,1.03
2018-12-15T03:15:42.731Z,1.06
2018-12-15T03:18:10.350Z,1.06
2018-12-15T03:20:37.936Z,1.08
2018-12-15T03:23:05.617Z,1.11
2018-12-15T03:25:33.240Z,1.12
2018-12-15T03:28:00.852Z,1.11
2018-12-15T03:30:28.442Z,1.11
2018-12-15T03:32:56.078Z,1.10
2018-12-15T03:35:23.719Z,1.10
2018-12-15T03:37:51.387Z,1.09
2018-12-15T03:40:19.062Z,1.10
2018-12-15T03:42:46.666Z,1.09
2018-12-15T03:45:14.370Z,1.09
2018-12-15T03:47:41.959Z,1.09
2018-12-15T03:50:09.611Z,1.11
2018-12-15T03:52:37.200Z,1.11
2018-12-15T03:55:04.926Z,1.12
2018-12-15T03:57:32.605Z,1.14
2018-12-15T04:00:00.260Z,1.14
2018-12-15T04:02:27.917Z,1.12
2018-12-15T04:04:55.581Z,1.13
2018-12-15T04:07:23.170Z,1.13
2018-12-15T04:09:50.805Z,1.13
2018-12-15T04:12:18.469Z,1.13
2018-12-15T04:14:46.128Z,1.13
2018-12-15T04:17:13.752Z,1.16
2018-12-15T04:19:41.369Z,1.16
2018-12-15T04:22:18.452Z,1.16
2018-12-15T04:24:46.405Z,1.16
2018-12-15T04:27:14.084Z,1.15
2018-12-15T04:29:41.705Z,1.13
2018-12-15T04:32:09.358Z,1.12
2018-12-15T04:34:36.964Z,1.11
2018-12-15T04:37:04.556Z,1.10
2018-12-15T04:39:32.279Z,1.10
2018-12-15T04:41:59.948Z,1.10
2018-12-15T04:44:27.612Z,1.10
2018-12-15T04:46:55.444Z,1.11
2018-12-15T04:49:23.135Z,1.10
2018-12-15T04:51:50.723Z,1.11
2018-12-15T04:54:18.317Z,1.11
2018-12-15T04:56:46.029Z,1.11
2018-12-15T04:59:13.683Z,1.13
2018-12-15T05:01:41.342Z,1.15
2018-12-15T05:04:09.015Z,1.15
2018-12-15T05:06:36.769Z,1.16
2018-12-15T05:09:06.378Z,1.16
2018-12-15T05:11:34.057Z,1.17
2018-12-15T05:14:01.718Z,1.18
2018-12-15T05:16:29.383Z,1.19
2018-12-15T05:18:57.034Z,1.20
2018-12-15T05:21:24.694Z,1.21
2018-12-15T05:23:52.369Z,1.21
2018-12-15T05:26:20.023Z,1.22
2018-12-15T05:28:47.696Z,1.21
2018-12-15T05:31:15.356Z,1.23
2018-12-15T05:33:43.015Z,1.23
2018-12-15T05:36:10.670Z,1.23
2018-12-15T05:38:38.353Z,1.23
2018-12-15T05:41:06.008Z,1.24
2018-12-15T05:43:33.663Z,1.22
2018-12-15T05:46:01.327Z,1.22
2018-12-15T05:48:29.195Z,1.24
2018-12-15T05:50:57.163Z,1.26
2018-12-15T05:53:24.827Z,1.25
2018-12-15T05:55:52.455Z,1.26
2018-12-15T05:58:20.160Z,1.26
2018-12-15T06:00:47.825Z,1.27
2018-12-15T06:03:15.494Z,1.28
2018-12-15T06:05:43.154Z,1.28
2018-12-15T06:08:10.776Z,1.29
2018-12-15T06:10:38.477Z,1.32
2018-12-15T06:13:06.141Z,1.33
2018-12-15T06:15:33.814Z,1.33
2018-12-15T06:18:01.427Z,1.32
2018-12-15T06:20:29.124Z,1.32
2018-12-15T06:22:56.792Z,1.31
2018-12-15T06:25:24.448Z,1.30
2018-12-15T06:27:52.107Z,1.28
2018-12-15T06:30:19.699Z,1.26
2018-12-15T06:32:47.335Z,1.23
2018-12-15T06:35:14.994Z,1.21
2018-12-15T06:37:42.716Z,1.20
2018-12-15T06:40:10.428Z,1.19
2018-12-15T06:42:38.034Z,1.17
2018-12-15T06:45:06.054Z,1.14
2018-12-15T06:47:33.729Z,1.14
2018-12-15T06:50:01.390Z,1.14
2018-12-15T06:52:29.052Z,1.12
2018-12-15T06:54:56.717Z,1.11
2018-12-15T06:57:24.366Z,1.09
2018-12-15T06:59:52.041Z,1.08
2018-12-15T07:02:19.703Z,1.06
2018-12-15T07:04:47.455Z,1.05
2018-12-15T07:07:15.048Z,1.04
2018-12-15T07:09:42.657Z,1.03
2018-12-15T07:12:11.101Z,0.99
2018-12-15T07:14:38.727Z,0.99
2018-12-15T07:17:06.705Z,0.97
2018-12-15T07:19:34.358Z,0.95
2018-12-15T07:22:02.023Z,0.94
2018-12-15T07:24:29.636Z,0.91
2018-12-15T07:26:57.236Z,0.89
2018-12-15T07:29:24.916Z,0.87
2018-12-15T07:31:52.570Z,0.84
2018-12-15T07:34:20.246Z,0.82
2018-12-15T07:36:47.892Z,0.79
2018-12-15T07:39:15.559Z,0.77
2018-12-15T07:41:43.233Z,0.75
2018-12-15T07:44:10.892Z,0.73
2018-12-15T07:46:38.557Z,0.71
2018-12-15T07:49:06.308Z,0.71
2018-12-15T07:51:33.989Z,0.69
2018-12-15T07:54:01.583Z,0.70
2018-12-15T07:56:29.198Z,0.70
2018-12-15T07:58:56.796Z,0.72
2018-12-15T08:01:24.415Z,0.72
2018-12-15T08:03:52.087Z,0.74
2018-12-15T08:06:19.709Z,0.75
2018-12-15T08:08:47.336Z,0.77
2018-12-15T08:11:20.534Z,0.79
2018-12-15T08:13:48.310Z,0.82
2018-12-15T08:16:15.932Z,0.86
2018-12-15T08:18:43.590Z,0.89
2018-12-15T08:21:11.368Z,0.94
2018-12-15T08:23:39.023Z,0.96
2018-12-15T08:26:06.683Z,1.01
2018-12-15T08:28:34.357Z,1.07
2018-12-15T08:31:01.963Z,1.12
2018-12-15T08:33:29.572Z,1.17
2018-12-15T08:35:57.235Z,1.24
2018-12-15T08:38:24.819Z,1.30
2018-12-15T08:40:52.477Z,1.36
2018-12-15T08:43:20.129Z,1.44
2018-12-15T08:45:47.745Z,1.48
2018-12-15T08:48:15.327Z,1.53
2018-12-15T08:50:43.006Z,1.56
2018-12-15T08:53:10.676Z,1.59
2018-12-15T08:55:38.337Z,1.62
2018-12-15T08:58:06.108Z,1.65
2018-12-15T09:00:33.759Z,1.67
2018-12-15T09:03:01.826Z,1.69
2018-12-15T09:05:29.416Z,1.67
2018-12-15T09:07:57.064Z,1.71
2018-12-15T09:10:24.650Z,1.75
2018-12-15T09:12:52.288Z,1.77
2018-12-15T09:15:19.947Z,1.79
2018-12-15T09:17:47.607Z,1.80
2018-12-15T09:20:15.280Z,1.81
2018-12-15T09:22:42.940Z,1.82
2018-12-15T09:25:10.602Z,1.85
2018-12-15T09:27:38.224Z,1.89
2018-12-15T09:30:06.442Z,1.92
2018-12-15T09:32:34.047Z,1.98
2018-12-15T09:35:01.657Z,2.04
2018-12-15T09:37:29.279Z,2.10
2018-12-15T09:39:56.989Z,2.12
2018-12-15T09:42:24.668Z,2.15
2018-12-15T09:44:52.261Z,2.19
2018-12-15T09:47:19.991Z,2.19
2018-12-15T09:49:47.648Z,2.21
2018-12-15T09:52:15.282Z,2.22
2018-12-15T09:54:42.969Z,2.25
2018-12-15T09:57:10.621Z,2.29
2018-12-15T09:59:38.706Z,2.32
2018-12-15T10:02:06.355Z,2.32
2018-12-15T10:04:34.113Z,2.33
2018-12-15T10:07:01.713Z,2.36
2018-12-15T10:09:29.330Z,2.38
2018-12-15T10:11:56.915Z,2.41
2018-12-15T10:14:24.577Z,2.43
2018-12-15T10:16:52.308Z,2.43
2018-12-15T10:19:24.215Z,2.45
2018-12-15T10:21:49.603Z,2.47
2018-12-15T10:24:17.272Z,2.49
2018-12-15T10:26:44.936Z,2.51
2018-12-15T10:29:14.530Z,2.55
2018-12-15T10:34:48.358Z,2.62
2018-12-15T10:37:16.038Z,2.64
2018-12-15T10:39:43.701Z,2.67
2018-12-15T10:42:11.365Z,2.66
2018-12-15T10:44:39.115Z,2.68
2018-12-15T10:47:06.793Z,2.67
2018-12-15T10:49:34.547Z,2.67
2018-12-15T10:52:02.221Z,2.67
2018-12-15T10:54:29.885Z,2.66
2018-12-15T10:56:57.527Z,2.64
2018-12-15T10:59:25.199Z,2.62
2018-12-15T11:01:52.879Z,2.62
2018-12-15T11:04:20.521Z,2.61
2018-12-15T11:06:48.198Z,2.62
2018-12-15T11:09:15.863Z,2.62
2018-12-15T11:11:43.525Z,2.62
2018-12-15T11:14:11.250Z,2.61
2018-12-15T11:16:39.038Z,2.59
2018-12-15T11:19:06.717Z,2.58
2018-12-15T11:21:34.379Z,2.57
2018-12-15T11:24:02.255Z,2.57
2018-12-15T11:26:29.903Z,2.55
2018-12-15T11:28:57.583Z,2.54
2018-12-15T11:31:25.236Z,2.52
2018-12-15T11:33:52.891Z,2.52
2018-12-15T11:36:20.549Z,2.51
2018-12-15T11:38:48.149Z,2.49
2018-12-15T11:41:15.760Z,2.49
2018-12-15T11:43:43.344Z,2.48
2018-12-15T11:46:10.943Z,2.48
2018-12-15T11:48:38.592Z,2.46
2018-12-15T11:51:06.224Z,2.44
2018-12-15T11:53:33.887Z,2.42
2018-12-15T11:56:01.547Z,2.45
2018-12-15T11:58:29.215Z,2.45
2018-12-15T12:00:56.868Z,2.46
2018-12-15T12:03:24.464Z,2.47
2018-12-15T12:05:52.132Z,2.49
2018-12-15T12:08:19.762Z,2.51
2018-12-15T12:10:47.433Z,2.52
2018-12-15T12:13:15.089Z,2.52
2018-12-15T12:15:42.754Z,2.50
2018-12-15T12:18:10.364Z,2.47
2018-12-15T12:20:38.392Z,2.43
2018-12-15T12:23:06.142Z,2.42
2018-12-15T12:25:33.743Z,2.42
2018-12-15T12:28:01.347Z,2.40
2018-12-15T12:30:28.947Z,2.42
2018-12-15T12:32:59.302Z,2.44
2018-12-15T12:35:26.212Z,2.42
2018-12-15T12:37:53.876Z,2.41
2018-12-15T12:40:21.458Z,2.40
2018-12-15T12:42:49.097Z,2.39
2018-12-15T12:45:16.755Z,2.37
2018-12-15T12:47:44.426Z,2.35
2018-12-15T12:50:12.174Z,2.35
2018-12-15T12:52:39.939Z,2.34
2018-12-15T12:55:07.723Z,2.33
2018-12-15T12:57:35.385Z,2.35
2018-12-15T13:00:03.045Z,2.35
2018-12-15T13:02:30.655Z,2.36
2018-12-15T13:04:58.235Z,2.37
2018-12-15T13:07:25.934Z,2.37
2018-12-15T13:09:53.582Z,2.36
2018-12-15T13:12:21.247Z,2.35
2018-12-15T13:14:48.911Z,2.34
2018-12-15T13:17:16.588Z,2.33
2018-12-15T13:19:44.240Z,2.32
2018-12-15T13:22:11.998Z,2.32
2018-12-15T13:24:39.644Z,2.33
2018-12-15T13:27:07.244Z,2.34
2018-12-15T13:29:34.904Z,2.34
2018-12-15T13:32:02.565Z,2.36
2018-12-15T13:34:30.967Z,2.36
2018-12-15T13:36:58.590Z,2.37
2018-12-15T13:39:26.200Z,2.37
2018-12-15T13:41:53.787Z,2.37
2018-12-15T13:44:21.679Z,2.37
2018-12-15T13:46:49.655Z,2.37
2018-12-15T13:49:17.258Z,2.37
2018-12-15T13:51:44.836Z,2.38
2018-12-15T13:54:12.544Z,2.40
2018-12-15T13:56:40.216Z,2.39
2018-12-15T13:59:07.876Z,2.40
2018-12-15T14:01:35.729Z,2.39
2018-12-15T14:04:03.402Z,2.38
2018-12-15T14:06:31.063Z,2.38
2018-12-15T14:08:58.970Z,2.37
2018-12-15T14:11:26.695Z,2.35
2018-12-15T14:13:54.309Z,2.34
2018-12-15T14:16:21.920Z,2.33
2018-12-15T14:18:49.590Z,2.30
2018-12-15T14:21:17.355Z,2.29
2018-12-15T14:23:45.209Z,2.27
2018-12-15T14:26:12.804Z,2.26
2018-12-15T14:28:40.396Z,2.23
2018-12-15T14:31:08.099Z,2.20
2018-12-15T14:33:35.739Z,2.21
2018-12-15T14:36:03.349Z,2.20
2018-12-15T14:38:30.996Z,2.20
2018-12-15T14:40:58.647Z,2.19
2018-12-15T14:43:26.321Z,2.19
2018-12-15T14:45:53.969Z,2.18
2018-12-15T14:48:21.640Z,2.18
2018-12-15T14:50:49.408Z,2.24
2018-12-15T14:53:17.073Z,2.28
2018-12-15T14:55:44.722Z,2.25
2018-12-15T14:58:12.404Z,2.24
2018-12-15T15:00:40.014Z,2.22
2018-12-15T15:03:07.821Z,2.20
2018-12-15T15:05:35.493Z,2.19
2018-12-15T15:08:03.147Z,2.18
2018-12-15T15:10:30.821Z,2.16
2018-12-15T15:12:58.481Z,2.15
2018-12-15T15:15:26.135Z,2.16
2018-12-15T15:17:53.805Z,2.15
2018-12-15T15:20:21.554Z,2.15
2018-12-15T15:22:49.148Z,2.13
2018-12-15T15:25:16.760Z,2.12
2018-12-15T15:27:44.357Z,2.12
2018-12-15T15:30:12.016Z,2.11
2018-12-15T15:32:39.671Z,2.08
2018-12-15T15:35:07.432Z,2.07
2018-12-15T15:37:35.098Z,2.03
2018-12-15T15:40:02.772Z,2.00
2018-12-15T15:42:30.423Z,1.96
2018-12-15T15:44:58.092Z,1.92
2018-12-15T15:47:25.752Z,1.88
2018-12-15T15:49:53.415Z,1.88
2018-12-15T15:52:21.143Z,1.86
2018-12-15T15:54:48.859Z,1.83
2018-12-15T15:57:16.513Z,1.80
2018-12-15T15:59:44.175Z,1.77
2018-12-15T16:02:11.831Z,1.74
2018-12-15T16:04:39.491Z,1.72
2018-12-15T16:07:07.164Z,1.70
2018-12-15T16:09:34.823Z,1.69
2018-12-15T16:12:02.491Z,1.68
2018-12-15T16:14:30.143Z,1.68
2018-12-15T16:16:57.816Z,1.68
2018-12-15T16:19:25.470Z,1.71
2018-12-15T16:21:53.145Z,1.80
2018-12-15T16:24:20.737Z,1.83
2018-12-15T16:26:48.348Z,1.83
2018-12-15T16:29:15.927Z,1.80
2018-12-15T16:31:44.263Z,1.80
2018-12-15T16:34:11.976Z,1.76
2018-12-15T16:36:39.627Z,1.73
2018-12-15T16:39:07.351Z,1.71
2018-12-15T16:41:35.064Z,1.71
2018-12-15T16:44:02.701Z,1.67
2018-12-15T16:46:30.583Z,1.69
2018-12-15T16:48:58.253Z,1.69
2018-12-15T16:51:25.991Z,1.67
2018-12-15T16:53:53.675Z,1.67
2018-12-15T16:56:21.387Z,1.64
2018-12-15T16:58:49.014Z,1.64
2018-12-15T17:01:16.658Z,1.64
2018-12-15T17:03:44.263Z,1.65
2018-12-15T17:06:11.901Z,1.64
2018-12-15T17:08:39.557Z,1.63
2018-12-15T17:11:07.220Z,1.63
2018-12-15T17:13:34.975Z,1.63
2018-12-15T17:16:02.650Z,1.62
2018-12-15T17:18:30.303Z,1.63
2018-12-15T17:20:57.965Z,1.62
2018-12-15T17:23:25.627Z,1.61
2018-12-15T17:25:53.386Z,1.59
2018-12-15T17:28:21.063Z,1.58
2018-12-15T17:30:48.728Z,1.55
2018-12-15T17:33:16.391Z,1.55
2018-12-15T17:35:44.043Z,1.53
2018-12-15T17:38:11.721Z,1.51
2018-12-15T17:40:39.371Z,1.46
2018-12-15T17:43:06.975Z,1.43
2018-12-15T17:45:34.603Z,1.41
2018-12-15T17:48:02.468Z,1.42
2018-12-15T17:50:30.132Z,1.39
2018-12-15T17:52:57.786Z,1.40
2018-12-15T17:55:25.451Z,1.40
2018-12-15T17:57:53.127Z,1.39
2018-12-15T18:00:20.940Z,1.38
2018-12-15T18:02:48.591Z,1.37
2018-12-15T18:05:16.181Z,1.36
2018-12-15T18:07:43.859Z,1.38
2018-12-15T18:10:11.497Z,1.39
2018-12-15T18:12:39.194Z,1.41
2018-12-15T18:15:07.571Z,1.42
2018-12-15T18:17:35.272Z,1.45
2018-12-15T18:20:03.147Z,1.47
2018-12-15T18:22:30.866Z,1.49
2018-12-15T18:24:58.530Z,1.51
2018-12-15T18:27:26.201Z,1.51
2018-12-15T18:29:54.069Z,1.53
2018-12-15T18:32:21.675Z,1.53
2018-12-15T18:34:49.288Z,1.53
2018-12-15T18:37:16.882Z,1.53
2018-12-15T18:39:44.517Z,1.53
2018-12-15T18:42:12.170Z,1.53
2018-12-15T18:44:39.845Z,1.53
2018-12-15T18:47:07.512Z,1.54
2018-12-15T18:49:35.160Z,1.55
2018-12-15T18:52:02.766Z,1.55
2018-12-15T18:54:30.497Z,1.55
2018-12-15T18:56:58.135Z,1.55
2018-12-15T18:59:25.985Z,1.56
2018-12-15T19:01:53.665Z,1.57
2018-12-15T19:04:21.346Z,1.58
2018-12-15T19:06:49.019Z,1.59
2018-12-15T19:09:16.677Z,1.60
2018-12-15T19:11:44.267Z,1.62
2018-12-15T19:14:11.902Z,1.62
2018-12-15T19:16:39.497Z,1.63
2018-12-15T19:19:07.215Z,1.65
2018-12-15T19:21:34.813Z,1.65
2018-12-15T19:24:02.422Z,1.67
2018-12-15T19:26:30.103Z,1.69
2018-12-15T19:28:57.720Z,1.69
2018-12-15T19:31:25.326Z,1.70
2018-12-15T19:33:53.099Z,1.71
2018-12-15T19:36:20.755Z,1.72
2018-12-15T19:38:48.425Z,1.73
2018-12-15T19:41:16.091Z,1.77
2018-12-15T19:43:43.744Z,1.77
2018-12-15T19:46:11.403Z,1.78
2018-12-15T19:48:39.164Z,1.78
2018-12-15T19:51:06.840Z,1.79
2018-12-15T19:53:34.740Z,1.80
2018-12-15T19:56:02.766Z,1.81
2018-12-15T19:58:30.532Z,1.81
2018-12-15T20:00:58.369Z,1.82
2018-12-15T20:03:26.267Z,1.82
2018-12-15T20:05:54.011Z,1.82
2018-12-15T20:08:21.637Z,1.84
2018-12-15T20:10:49.260Z,1.86
2018-12-15T20:13:16.933Z,1.85
2018-12-15T20:15:44.595Z,1.86
2018-12-15T20:18:12.188Z,1.88
2018-12-15T20:20:39.809Z,1.90
2018-12-15T20:23:07.588Z,1.91
2018-12-15T20:25:35.721Z,1.92
2018-12-15T20:28:03.304Z,1.93
2018-12-15T20:30:30.975Z,1.94
2018-12-15T20:32:58.943Z,1.95
2018-12-15T20:35:26.811Z,1.95
2018-12-15T20:37:54.492Z,1.96
2018-12-15T20:40:22.139Z,1.96
2018-12-15T20:42:49.837Z,1.97
2018-12-15T20:45:17.472Z,1.98
2018-12-15T20:47:45.141Z,1.98
2018-12-15T20:50:12.798Z,1.98
2018-12-15T20:52:40.384Z,1.98
2018-12-15T20:55:08.029Z,1.98
2018-12-15T20:57:35.671Z,2.00
2018-12-15T21:00:04.259Z,2.02
2018-12-15T21:02:31.933Z,2.04
2018-12-15T21:04:59.631Z,2.03
2018-12-15T21:07:27.232Z,2.01
2018-12-15T21:09:54.848Z,2.01
2018-12-15T21:12:22.431Z,1.98
2018-12-15T21:14:50.107Z,1.97
2018-12-15T21:17:17.688Z,1.95
2018-12-15T21:19:48.061Z,1.97
2018-12-15T21:22:15.180Z,1.96
2018-12-15T21:24:42.780Z,1.96
2018-12-15T21:27:10.405Z,1.98
2018-12-15T21:29:38.071Z,1.97
2018-12-15T21:32:05.733Z,1.96
2018-12-15T21:34:33.342Z,1.95
2018-12-15T21:37:00.970Z,1.94
2018-12-15T21:39:28.600Z,1.94
2018-12-15T21:41:56.272Z,1.93
2018-12-15T21:44:23.966Z,1.91
2018-12-15T21:46:51.601Z,1.90
2018-12-15T21:49:19.268Z,1.90
2018-12-15T21:51:46.875Z,1.90
2018-12-15T21:54:14.455Z,1.89
2018-12-15T21:56:42.152Z,1.88
2018-12-15T21:59:09.753Z,1.89
2018-12-15T22:01:37.481Z,1.90
2018-12-15T22:04:05.148Z,1.90
2018-12-15T22:06:32.804Z,1.89
2018-12-15T22:09:00.382Z,1.89
2018-12-15T22:11:28.029Z,1.88
2018-12-15T22:13:55.683Z,1.87
2018-12-15T22:16:23.352Z,1.86
2018-12-15T22:18:51.010Z,1.86
2018-12-15T22:21:18.684Z,1.86
2018-12-15T22:23:46.279Z,1.86
2018-12-15T22:26:13.998Z,1.87
2018-12-15T22:28:41.662Z,1.86
2018-12-15T22:31:09.267Z,1.85
2018-12-15T22:33:36.883Z,1.84
2018-12-15T22:36:04.561Z,1.85
2018-12-15T22:38:32.196Z,1.85
2018-12-15T22:40:59.870Z,1.85
2018-12-15T22:43:27.535Z,1.84
2018-12-15T22:45:55.209Z,1.84
2018-12-15T22:48:22.858Z,1.85
2018-12-15T22:50:50.532Z,1.83
2018-12-15T22:53:18.193Z,1.82
2018-12-15T22:55:45.856Z,1.81
2018-12-15T22:58:13.513Z,1.81
2018-12-15T23:03:39.567Z,1.76
2018-12-15T23:06:07.216Z,1.73
2018-12-15T23:08:34.895Z,1.74
2018-12-15T23:11:02.643Z,1.72
2018-12-15T23:13:30.223Z,1.72
2018-12-15T23:15:57.985Z,1.73
2018-12-15T23:18:26.281Z,1.72
2018-12-15T23:20:53.915Z,1.71
2018-12-15T23:23:21.589Z,1.70
2018-12-15T23:25:49.205Z,1.69
2018-12-15T23:28:16.793Z,1.69
2018-12-15T23:30:44.463Z,1.65
2018-12-15T23:33:12.137Z,1.65
2018-12-15T23:35:39.800Z,1.63
2018-12-15T23:38:07.554Z,1.62
2018-12-15T23:40:35.136Z,1.63
2018-12-15T23:43:02.785Z,1.61
2018-12-15T23:45:30.851Z,1.61
2018-12-15T23:47:58.511Z,1.59
2018-12-15T23:50:26.183Z,1.61
2018-12-15T23:52:53.838Z,1.61
2018-12-15T23:55:21.513Z,1.64
2018-12-15T23:57:49.167Z,1.63
